Terminal Aerodrome Forecast
Issued by NWS Sterling, VA

Home | Current Version | Previous Version | Text Only | Print | Product List | Glossary On
Versions: 1 2 3 4 5 6 7 8 9 10 11 12 13 14 15
000
FTUS41 KLWX 201700 RRA
TAFCHO
TAF
KCHO 201742Z 2018/2118 17004KT P6SM FEW050
     FM202300 00000KT P6SM SKC
     FM210600 00000KT 3SM BR FEW200
     FM210700 00000KT 2SM BR FEW200
     FM211300 00000KT 5SM BR FEW200
     FM211400 00000KT P6SM FEW200=

USA.gov is the U.S. government's official web portal to all federal, state and local government web resources and services.